This is the latest recevied weather packets stored in our database for station/object K9MWD. If no packets are shown the sender has not sent any weather packets the latest 10 day(s).
| Time | Temp. | Humidity | Pressure | Rain* | Wind** | Luminosity | Snow |
|---|---|---|---|---|---|---|---|
| 1777742654 | 22.22° C | 38% | 1022.2 hPa | 0 mm | - | 895 W/m² | - |
| 1777742350 | 22.78° C | 37% | 1022.3 hPa | 0 mm | - | 888 W/m² | - |
| 1777742046 | 22.78° C | 40% | 1022.4 hPa | 0 mm | - | 879 W/m² | - |
| 1777741744 | 22.22° C | 40% | 1022.5 hPa | 0 mm | - | 874 W/m² | - |
| 1777741440 | 22.22° C | 42% | 1022.5 hPa | 0 mm | - | 870 W/m² | - |
| 1777741136 | 21.67° C | 41% | 1022.6 hPa | 0 mm | - | 860 W/m² | - |
| 1777740834 | 21.67° C | 41% | 1022.6 hPa | 0 mm | - | 851 W/m² | - |
| 1777740530 | 22.22° C | 42% | 1022.5 hPa | 0 mm | - | 845 W/m² | - |
| 1777740227 | 21.67° C | 42% | 1022.4 hPa | 0 mm | - | 835 W/m² | - |
| 1777739923 | 21.67° C | 43% | 1022.5 hPa | 0 mm | - | 826 W/m² | - |
| 1777739620 | 20.56° C | 43% | 1022.6 hPa | 0 mm | - | 817 W/m² | - |
| 1777739318 | 21.11° C | 43% | 1022.3 hPa | 0 mm | - | 806 W/m² | - |
| 1777739014 | 20.56° C | 46% | 1022.5 hPa | 0 mm | - | 796 W/m² | - |
| 1777738711 | 20.56° C | 44% | 1022.4 hPa | 0 mm | - | 785 W/m² | - |
| 1777738407 | 20.56° C | 45% | 1022.4 hPa | 0 mm | - | 775 W/m² | - |
| 1777738105 | 20.56° C | 46% | 1022.6 hPa | 0 mm | - | 763 W/m² | - |
| 1777737804 | 20.56° C | 47% | 1022.5 hPa | 0 mm | - | 749 W/m² | - |
| 1777737502 | 20° C | 49% | 1022.5 hPa | 0 mm | - | 738 W/m² | - |
| 1777737200 | 20° C | 50% | 1022.4 hPa | 0 mm | - | 725 W/m² | - |
| 1777736895 | 20° C | 47% | 1022.4 hPa | 0 mm | - | 714 W/m² | - |
| 1777736282 | 19.44° C | 53% | 1022.2 hPa | 0 mm | - | 686 W/m² | - |
| 1777735978 | 19.44° C | 55% | 1022.4 hPa | 0 mm | - | 674 W/m² | - |
| 1777735675 | 19.44° C | 56% | 1022.5 hPa | 0 mm | - | 659 W/m² | - |
| 1777735373 | 18.89° C | 61% | 1022.2 hPa | 0 mm | - | 644 W/m² | - |
| 1777735070 | 18.89° C | 62% | 1022.3 hPa | 0 mm | - | 627 W/m² | - |
* Rain latest hour (hover to see other rain measurements)
** Current wind speed in m/s (hover to see current wind gust speed)